sensor_id;sensor_type;location;lat;lon;timestamp;pressure;altitude;pressure_sealevel;temperature
10869;BMP180;62667;48.698;8.762;2023-07-29T00:01:04;95619.00;;;16.40
10869;BMP180;62667;48.698;8.762;2023-07-29T00:03:32;95611.00;;;16.40
10869;BMP180;62667;48.698;8.762;2023-07-29T00:05:59;95605.00;;;16.50
10869;BMP180;62667;48.698;8.762;2023-07-29T00:08:27;95615.00;;;16.50
10869;BMP180;62667;48.698;8.762;2023-07-29T00:10:54;95608.00;;;16.40
10869;BMP180;62667;48.698;8.762;2023-07-29T00:13:22;95605.00;;;16.50
10869;BMP180;62667;48.698;8.762;2023-07-29T00:15:52;95606.00;;;16.50
10869;BMP180;62667;48.698;8.762;2023-07-29T00:18:20;95598.00;;;16.50
10869;BMP180;62667;48.698;8.762;2023-07-29T00:20:47;95602.00;;;16.50
10869;BMP180;62667;48.698;8.762;2023-07-29T00:23:17;95605.00;;;16.50
10869;BMP180;62667;48.698;8.762;2023-07-29T00:25:46;95606.00;;;16.50
10869;BMP180;62667;48.698;8.762;2023-07-29T00:28:13;95605.00;;;16.50
10869;BMP180;62667;48.698;8.762;2023-07-29T00:30:41;95602.00;;;16.50
10869;BMP180;62667;48.698;8.762;2023-07-29T00:33:10;95608.00;;;16.60
10869;BMP180;62667;48.698;8.762;2023-07-29T00:35:37;95612.00;;;16.60
10869;BMP180;62667;48.698;8.762;2023-07-29T00:38:04;95611.00;;;16.50
10869;BMP180;62667;48.698;8.762;2023-07-29T00:40:36;95611.00;;;16.60
10869;BMP180;62667;48.698;8.762;2023-07-29T00:43:03;95602.00;;;16.60
10869;BMP180;62667;48.698;8.762;2023-07-29T00:45:32;95596.00;;;16.60
10869;BMP180;62667;48.698;8.762;2023-07-29T00:48:00;95595.00;;;16.60
10869;BMP180;62667;48.698;8.762;2023-07-29T00:50:31;95603.00;;;16.60
10869;BMP180;62667;48.698;8.762;2023-07-29T00:52:59;95596.00;;;16.60
10869;BMP180;62667;48.698;8.762;2023-07-29T00:55:27;95593.00;;;16.60
10869;BMP180;62667;48.698;8.762;2023-07-29T00:57:55;95595.00;;;16.50
10869;BMP180;62667;48.698;8.762;2023-07-29T01:00:23;95597.00;;;16.50
10869;BMP180;62667;48.698;8.762;2023-07-29T01:02:51;95588.00;;;16.50
10869;BMP180;62667;48.698;8.762;2023-07-29T01:05:21;95585.00;;;16.50
10869;BMP180;62667;48.698;8.762;2023-07-29T01:07:53;95588.00;;;16.50
10869;BMP180;62667;48.698;8.762;2023-07-29T01:10:32;95586.00;;;16.40
10869;BMP180;62667;48.698;8.762;2023-07-29T01:13:06;95586.00;;;16.30
10869;BMP180;62667;48.698;8.762;2023-07-29T01:15:43;95584.00;;;16.30
10869;BMP180;62667;48.698;8.762;2023-07-29T01:18:18;95589.00;;;16.30
10869;BMP180;62667;48.698;8.762;2023-07-29T01:20:46;95596.00;;;16.30
10869;BMP180;62667;48.698;8.762;2023-07-29T01:23:23;95583.00;;;16.20
10869;BMP180;62667;48.698;8.762;2023-07-29T01:25:50;95577.00;;;16.10
10869;BMP180;62667;48.698;8.762;2023-07-29T01:28:18;95563.00;;;16.10
10869;BMP180;62667;48.698;8.762;2023-07-29T01:30:45;95572.00;;;16.10
10869;BMP180;62667;48.698;8.762;2023-07-29T01:33:20;95568.00;;;16.20
10869;BMP180;62667;48.698;8.762;2023-07-29T01:35:53;95568.00;;;16.10
10869;BMP180;62667;48.698;8.762;2023-07-29T01:38:27;95560.00;;;16.10
10869;BMP180;62667;48.698;8.762;2023-07-29T01:40:59;95564.00;;;16.00
10869;BMP180;62667;48.698;8.762;2023-07-29T01:43:28;95561.00;;;16.00
10869;BMP180;62667;48.698;8.762;2023-07-29T01:45:56;95562.00;;;16.00
10869;BMP180;62667;48.698;8.762;2023-07-29T01:48:23;95559.00;;;16.10
10869;BMP180;62667;48.698;8.762;2023-07-29T01:50:51;95564.00;;;16.10
10869;BMP180;62667;48.698;8.762;2023-07-29T01:53:19;95561.00;;;16.10
10869;BMP180;62667;48.698;8.762;2023-07-29T01:55:47;95551.00;;;16.10
10869;BMP180;62667;48.698;8.762;2023-07-29T01:58:15;95552.00;;;16.10
10869;BMP180;62667;48.698;8.762;2023-07-29T02:00:42;95541.00;;;16.10
10869;BMP180;62667;48.698;8.762;2023-07-29T02:03:10;95546.00;;;16.10
10869;BMP180;62667;48.698;8.762;2023-07-29T02:05:37;95543.00;;;16.10
10869;BMP180;62667;48.698;8.762;2023-07-29T02:08:05;95543.00;;;16.10
10869;BMP180;62667;48.698;8.762;2023-07-29T02:10:32;95549.00;;;16.10
10869;BMP180;62667;48.698;8.762;2023-07-29T02:13:01;95542.00;;;16.20
10869;BMP180;62667;48.698;8.762;2023-07-29T02:15:28;95544.00;;;16.10
10869;BMP180;62667;48.698;8.762;2023-07-29T02:17:55;95540.00;;;16.10
10869;BMP180;62667;48.698;8.762;2023-07-29T02:20:25;95540.00;;;16.10
10869;BMP180;62667;48.698;8.762;2023-07-29T02:22:52;95543.00;;;16.10
10869;BMP180;62667;48.698;8.762;2023-07-29T02:25:20;95534.00;;;16.00
10869;BMP180;62667;48.698;8.762;2023-07-29T02:27:47;95540.00;;;16.00
10869;BMP180;62667;48.698;8.762;2023-07-29T02:30:16;95544.00;;;16.00
10869;BMP180;62667;48.698;8.762;2023-07-29T02:32:44;95536.00;;;16.00
10869;BMP180;62667;48.698;8.762;2023-07-29T02:35:11;95553.00;;;16.00
10869;BMP180;62667;48.698;8.762;2023-07-29T02:37:39;95548.00;;;15.90
10869;BMP180;62667;48.698;8.762;2023-07-29T02:40:07;95547.00;;;15.80
10869;BMP180;62667;48.698;8.762;2023-07-29T02:42:34;95542.00;;;15.90
10869;BMP180;62667;48.698;8.762;2023-07-29T02:45:02;95532.00;;;15.80
10869;BMP180;62667;48.698;8.762;2023-07-29T02:47:31;95527.00;;;15.90
10869;BMP180;62667;48.698;8.762;2023-07-29T02:49:58;95533.00;;;15.90
10869;BMP180;62667;48.698;8.762;2023-07-29T02:52:26;95527.00;;;15.80
10869;BMP180;62667;48.698;8.762;2023-07-29T02:57:29;95525.00;;;15.90
10869;BMP180;62667;48.698;8.762;2023-07-29T02:59:56;95524.00;;;15.90
10869;BMP180;62667;48.698;8.762;2023-07-29T03:02:24;95518.00;;;16.00
10869;BMP180;62667;48.698;8.762;2023-07-29T03:04:52;95512.00;;;16.00
10869;BMP180;62667;48.698;8.762;2023-07-29T03:07:20;95512.00;;;16.10
10869;BMP180;62667;48.698;8.762;2023-07-29T03:09:47;95512.00;;;16.10
10869;BMP180;62667;48.698;8.762;2023-07-29T03:12:14;95512.00;;;16.10
10869;BMP180;62667;48.698;8.762;2023-07-29T03:14:42;95516.00;;;16.10
10869;BMP180;62667;48.698;8.762;2023-07-29T03:17:09;95518.00;;;16.20
10869;BMP180;62667;48.698;8.762;2023-07-29T03:19:37;95508.00;;;16.10
10869;BMP180;62667;48.698;8.762;2023-07-29T03:22:05;95498.00;;;16.20
10869;BMP180;62667;48.698;8.762;2023-07-29T03:24:33;95506.00;;;16.20
10869;BMP180;62667;48.698;8.762;2023-07-29T03:27:00;95511.00;;;16.20
10869;BMP180;62667;48.698;8.762;2023-07-29T03:29:27;95512.00;;;16.20
10869;BMP180;62667;48.698;8.762;2023-07-29T03:31:55;95508.00;;;16.20
10869;BMP180;62667;48.698;8.762;2023-07-29T03:34:22;95522.00;;;16.30
10869;BMP180;62667;48.698;8.762;2023-07-29T03:36:50;95524.00;;;16.30
10869;BMP180;62667;48.698;8.762;2023-07-29T03:39:19;95520.00;;;16.20
10869;BMP180;62667;48.698;8.762;2023-07-29T03:41:46;95510.00;;;16.20
10869;BMP180;62667;48.698;8.762;2023-07-29T03:44:13;95508.00;;;16.20
10869;BMP180;62667;48.698;8.762;2023-07-29T03:46:41;95499.00;;;16.20
10869;BMP180;62667;48.698;8.762;2023-07-29T03:49:08;95493.00;;;16.20
10869;BMP180;62667;48.698;8.762;2023-07-29T03:51:36;95485.00;;;16.20
10869;BMP180;62667;48.698;8.762;2023-07-29T03:54:03;95501.00;;;16.20
10869;BMP180;62667;48.698;8.762;2023-07-29T03:56:32;95503.00;;;16.20
10869;BMP180;62667;48.698;8.762;2023-07-29T03:59:05;95498.00;;;16.20
10869;BMP180;62667;48.698;8.762;2023-07-29T04:01:32;95509.00;;;16.20
10869;BMP180;62667;48.698;8.762;2023-07-29T04:04:00;95515.00;;;16.20
10869;BMP180;62667;48.698;8.762;2023-07-29T04:06:27;95523.00;;;16.30
10869;BMP180;62667;48.698;8.762;2023-07-29T04:08:55;95527.00;;;16.20
10869;BMP180;62667;48.698;8.762;2023-07-29T04:11:22;95511.00;;;16.10
10869;BMP180;62667;48.698;8.762;2023-07-29T04:13:51;95499.00;;;16.10
10869;BMP180;62667;48.698;8.762;2023-07-29T04:16:18;95508.00;;;16.00
10869;BMP180;62667;48.698;8.762;2023-07-29T04:18:46;95512.00;;;16.00
10869;BMP180;62667;48.698;8.762;2023-07-29T04:21:13;95517.00;;;15.90
10869;BMP180;62667;48.698;8.762;2023-07-29T04:23:41;95514.00;;;16.00
10869;BMP180;62667;48.698;8.762;2023-07-29T04:26:08;95514.00;;;16.10
10869;BMP180;62667;48.698;8.762;2023-07-29T04:28:35;95524.00;;;15.90
10869;BMP180;62667;48.698;8.762;2023-07-29T04:31:04;95526.00;;;15.90
10869;BMP180;62667;48.698;8.762;2023-07-29T04:33:32;95534.00;;;15.90
10869;BMP180;62667;48.698;8.762;2023-07-29T04:36:00;95526.00;;;16.00
10869;BMP180;62667;48.698;8.762;2023-07-29T04:38:31;95533.00;;;15.90
10869;BMP180;62667;48.698;8.762;2023-07-29T04:40:59;95525.00;;;15.70
10869;BMP180;62667;48.698;8.762;2023-07-29T04:43:27;95501.00;;;15.90
10869;BMP180;62667;48.698;8.762;2023-07-29T04:45:55;95491.00;;;15.90
10869;BMP180;62667;48.698;8.762;2023-07-29T04:48:24;95496.00;;;16.00
10869;BMP180;62667;48.698;8.762;2023-07-29T04:50:51;95492.00;;;16.10
10869;BMP180;62667;48.698;8.762;2023-07-29T04:53:18;95488.00;;;16.10
10869;BMP180;62667;48.698;8.762;2023-07-29T04:55:46;95482.00;;;16.20
10869;BMP180;62667;48.698;8.762;2023-07-29T04:58:13;95481.00;;;16.30
10869;BMP180;62667;48.698;8.762;2023-07-29T05:00:41;95484.00;;;16.40
10869;BMP180;62667;48.698;8.762;2023-07-29T05:03:08;95486.00;;;16.40
10869;BMP180;62667;48.698;8.762;2023-07-29T05:05:37;95485.00;;;16.50
10869;BMP180;62667;48.698;8.762;2023-07-29T05:08:04;95494.00;;;16.50
10869;BMP180;62667;48.698;8.762;2023-07-29T05:10:32;95500.00;;;16.70
10869;BMP180;62667;48.698;8.762;2023-07-29T05:12:59;95500.00;;;16.80
10869;BMP180;62667;48.698;8.762;2023-07-29T05:15:27;95496.00;;;16.80
10869;BMP180;62667;48.698;8.762;2023-07-29T05:17:54;95489.00;;;16.80
10869;BMP180;62667;48.698;8.762;2023-07-29T05:20:22;95495.00;;;16.80
10869;BMP180;62667;48.698;8.762;2023-07-29T05:22:50;95486.00;;;16.80
10869;BMP180;62667;48.698;8.762;2023-07-29T05:25:18;95488.00;;;16.90
10869;BMP180;62667;48.698;8.762;2023-07-29T05:27:45;95496.00;;;16.90
10869;BMP180;62667;48.698;8.762;2023-07-29T05:30:12;95492.00;;;17.00
10869;BMP180;62667;48.698;8.762;2023-07-29T05:32:40;95493.00;;;17.00
10869;BMP180;62667;48.698;8.762;2023-07-29T05:35:08;95490.00;;;17.00
10869;BMP180;62667;48.698;8.762;2023-07-29T05:37:38;95488.00;;;17.00
10869;BMP180;62667;48.698;8.762;2023-07-29T05:40:08;95491.00;;;17.00
10869;BMP180;62667;48.698;8.762;2023-07-29T05:42:36;95482.00;;;17.00
10869;BMP180;62667;48.698;8.762;2023-07-29T05:45:03;95487.00;;;17.00
10869;BMP180;62667;48.698;8.762;2023-07-29T05:47:32;95480.00;;;17.10
10869;BMP180;62667;48.698;8.762;2023-07-29T05:49:59;95479.00;;;17.20
10869;BMP180;62667;48.698;8.762;2023-07-29T05:52:30;95483.00;;;17.40
10869;BMP180;62667;48.698;8.762;2023-07-29T05:54:58;95477.00;;;17.40
10869;BMP180;62667;48.698;8.762;2023-07-29T05:57:26;95481.00;;;17.50
10869;BMP180;62667;48.698;8.762;2023-07-29T05:59:54;95486.00;;;17.60
10869;BMP180;62667;48.698;8.762;2023-07-29T06:02:21;95484.00;;;17.60
10869;BMP180;62667;48.698;8.762;2023-07-29T06:04:49;95485.00;;;17.80
10869;BMP180;62667;48.698;8.762;2023-07-29T06:07:16;95482.00;;;17.70
10869;BMP180;62667;48.698;8.762;2023-07-29T06:09:44;95489.00;;;17.80
10869;BMP180;62667;48.698;8.762;2023-07-29T06:12:11;95491.00;;;17.80
10869;BMP180;62667;48.698;8.762;2023-07-29T06:14:40;95504.00;;;17.80
10869;BMP180;62667;48.698;8.762;2023-07-29T06:17:07;95508.00;;;17.70
10869;BMP180;62667;48.698;8.762;2023-07-29T06:19:37;95519.00;;;17.90
10869;BMP180;62667;48.698;8.762;2023-07-29T06:22:05;95527.00;;;17.90
10869;BMP180;62667;48.698;8.762;2023-07-29T06:24:32;95532.00;;;17.90
10869;BMP180;62667;48.698;8.762;2023-07-29T06:27:00;95525.00;;;17.80
10869;BMP180;62667;48.698;8.762;2023-07-29T06:29:27;95524.00;;;17.70
10869;BMP180;62667;48.698;8.762;2023-07-29T06:31:57;95516.00;;;17.60
10869;BMP180;62667;48.698;8.762;2023-07-29T06:34:25;95523.00;;;17.50
10869;BMP180;62667;48.698;8.762;2023-07-29T06:36:52;95532.00;;;17.50
10869;BMP180;62667;48.698;8.762;2023-07-29T06:39:20;95532.00;;;17.60
10869;BMP180;62667;48.698;8.762;2023-07-29T06:41:47;95541.00;;;17.60
10869;BMP180;62667;48.698;8.762;2023-07-29T06:44:14;95546.00;;;17.50
10869;BMP180;62667;48.698;8.762;2023-07-29T06:46:42;95547.00;;;17.60
10869;BMP180;62667;48.698;8.762;2023-07-29T06:49:11;95542.00;;;17.70
10869;BMP180;62667;48.698;8.762;2023-07-29T06:51:38;95544.00;;;17.70
10869;BMP180;62667;48.698;8.762;2023-07-29T06:54:06;95551.00;;;17.70
10869;BMP180;62667;48.698;8.762;2023-07-29T06:56:33;95556.00;;;17.70
10869;BMP180;62667;48.698;8.762;2023-07-29T06:59:00;95553.00;;;17.70
10869;BMP180;62667;48.698;8.762;2023-07-29T07:01:28;95541.00;;;17.60
10869;BMP180;62667;48.698;8.762;2023-07-29T07:03:55;95532.00;;;17.60
10869;BMP180;62667;48.698;8.762;2023-07-29T07:06:25;95525.00;;;17.70
10869;BMP180;62667;48.698;8.762;2023-07-29T07:08:53;95515.00;;;17.70
10869;BMP180;62667;48.698;8.762;2023-07-29T07:11:20;95524.00;;;17.90
10869;BMP180;62667;48.698;8.762;2023-07-29T07:13:48;95537.00;;;18.10
10869;BMP180;62667;48.698;8.762;2023-07-29T07:16:15;95539.00;;;18.10
10869;BMP180;62667;48.698;8.762;2023-07-29T07:18:43;95546.00;;;18.20
10869;BMP180;62667;48.698;8.762;2023-07-29T07:21:10;95541.00;;;18.10
10869;BMP180;62667;48.698;8.762;2023-07-29T07:23:39;95536.00;;;18.00
10869;BMP180;62667;48.698;8.762;2023-07-29T07:26:06;95527.00;;;18.20
10869;BMP180;62667;48.698;8.762;2023-07-29T07:28:34;95537.00;;;18.30
10869;BMP180;62667;48.698;8.762;2023-07-29T07:31:01;95533.00;;;18.20
10869;BMP180;62667;48.698;8.762;2023-07-29T07:33:29;95522.00;;;18.30
10869;BMP180;62667;48.698;8.762;2023-07-29T07:35:56;95523.00;;;18.30
10869;BMP180;62667;48.698;8.762;2023-07-29T07:38:24;95529.00;;;18.70
10869;BMP180;62667;48.698;8.762;2023-07-29T07:40:56;95525.00;;;18.50
10869;BMP180;62667;48.698;8.762;2023-07-29T07:43:24;95531.00;;;18.60
10869;BMP180;62667;48.698;8.762;2023-07-29T07:45:57;95530.00;;;18.70
10869;BMP180;62667;48.698;8.762;2023-07-29T07:48:24;95520.00;;;18.60
10869;BMP180;62667;48.698;8.762;2023-07-29T07:50:52;95525.00;;;18.80
10869;BMP180;62667;48.698;8.762;2023-07-29T07:53:19;95524.00;;;19.00
10869;BMP180;62667;48.698;8.762;2023-07-29T07:55:47;95521.00;;;19.10
10869;BMP180;62667;48.698;8.762;2023-07-29T07:58:16;95533.00;;;19.20
10869;BMP180;62667;48.698;8.762;2023-07-29T08:00:43;95540.00;;;19.20
10869;BMP180;62667;48.698;8.762;2023-07-29T08:03:11;95543.00;;;19.10
10869;BMP180;62667;48.698;8.762;2023-07-29T08:05:38;95533.00;;;19.10
10869;BMP180;62667;48.698;8.762;2023-07-29T08:08:05;95552.00;;;19.20
10869;BMP180;62667;48.698;8.762;2023-07-29T08:10:33;95549.00;;;19.20
10869;BMP180;62667;48.698;8.762;2023-07-29T08:13:00;95543.00;;;18.90
10869;BMP180;62667;48.698;8.762;2023-07-29T08:15:29;95552.00;;;18.90
10869;BMP180;62667;48.698;8.762;2023-07-29T08:17:57;95555.00;;;19.30
10869;BMP180;62667;48.698;8.762;2023-07-29T08:20:24;95553.00;;;18.90
10869;BMP180;62667;48.698;8.762;2023-07-29T08:22:52;95559.00;;;19.20
10869;BMP180;62667;48.698;8.762;2023-07-29T08:25:19;95571.00;;;19.30
10869;BMP180;62667;48.698;8.762;2023-07-29T08:27:46;95562.00;;;19.20
10869;BMP180;62667;48.698;8.762;2023-07-29T08:30:14;95564.00;;;19.20
10869;BMP180;62667;48.698;8.762;2023-07-29T08:32:43;95572.00;;;19.40
10869;BMP180;62667;48.698;8.762;2023-07-29T08:35:11;95573.00;;;19.60
10869;BMP180;62667;48.698;8.762;2023-07-29T08:37:38;95574.00;;;19.70
10869;BMP180;62667;48.698;8.762;2023-07-29T08:40:07;95569.00;;;19.70
10869;BMP180;62667;48.698;8.762;2023-07-29T08:42:35;95570.00;;;20.00
10869;BMP180;62667;48.698;8.762;2023-07-29T08:45:07;95572.00;;;19.90
10869;BMP180;62667;48.698;8.762;2023-07-29T08:47:35;95568.00;;;19.90
10869;BMP180;62667;48.698;8.762;2023-07-29T08:50:05;95565.00;;;20.30
10869;BMP180;62667;48.698;8.762;2023-07-29T08:52:33;95569.00;;;20.50
10869;BMP180;62667;48.698;8.762;2023-07-29T08:55:01;95562.00;;;20.80
10869;BMP180;62667;48.698;8.762;2023-07-29T08:57:30;95571.00;;;20.80
10869;BMP180;62667;48.698;8.762;2023-07-29T08:59:58;95573.00;;;20.70
10869;BMP180;62667;48.698;8.762;2023-07-29T09:02:26;95559.00;;;20.30
10869;BMP180;62667;48.698;8.762;2023-07-29T09:04:53;95552.00;;;20.80
10869;BMP180;62667;48.698;8.762;2023-07-29T09:07:22;95550.00;;;20.60
10869;BMP180;62667;48.698;8.762;2023-07-29T09:09:50;95548.00;;;20.60
10869;BMP180;62667;48.698;8.762;2023-07-29T09:12:17;95546.00;;;20.80
10869;BMP180;62667;48.698;8.762;2023-07-29T09:14:45;95537.00;;;20.70
10869;BMP180;62667;48.698;8.762;2023-07-29T09:17:12;95533.00;;;20.80
10869;BMP180;62667;48.698;8.762;2023-07-29T09:19:41;95536.00;;;21.10
10869;BMP180;62667;48.698;8.762;2023-07-29T09:22:18;95541.00;;;21.30
10869;BMP180;62667;48.698;8.762;2023-07-29T09:24:48;95529.00;;;21.20
10869;BMP180;62667;48.698;8.762;2023-07-29T09:27:24;95543.00;;;20.90
10869;BMP180;62667;48.698;8.762;2023-07-29T09:29:53;95543.00;;;21.00
10869;BMP180;62667;48.698;8.762;2023-07-29T09:32:21;95533.00;;;21.00
10869;BMP180;62667;48.698;8.762;2023-07-29T09:34:49;95533.00;;;21.10
10869;BMP180;62667;48.698;8.762;2023-07-29T09:37:17;95529.00;;;21.10
10869;BMP180;62667;48.698;8.762;2023-07-29T09:39:47;95525.00;;;21.50
10869;BMP180;62667;48.698;8.762;2023-07-29T09:42:18;95529.00;;;21.90
10869;BMP180;62667;48.698;8.762;2023-07-29T09:44:48;95522.00;;;21.60
10869;BMP180;62667;48.698;8.762;2023-07-29T09:47:23;95530.00;;;21.40
10869;BMP180;62667;48.698;8.762;2023-07-29T09:49:51;95533.00;;;21.20
10869;BMP180;62667;48.698;8.762;2023-07-29T09:52:20;95546.00;;;21.60
10869;BMP180;62667;48.698;8.762;2023-07-29T09:54:50;95550.00;;;21.60
10869;BMP180;62667;48.698;8.762;2023-07-29T09:57:19;95535.00;;;21.50
10869;BMP180;62667;48.698;8.762;2023-07-29T09:59:54;95542.00;;;21.60
10869;BMP180;62667;48.698;8.762;2023-07-29T10:02:22;95552.00;;;21.60
10869;BMP180;62667;48.698;8.762;2023-07-29T10:04:52;95545.00;;;21.60
10869;BMP180;62667;48.698;8.762;2023-07-29T10:07:20;95552.00;;;21.80
10869;BMP180;62667;48.698;8.762;2023-07-29T10:09:50;95566.00;;;21.90
10869;BMP180;62667;48.698;8.762;2023-07-29T10:12:19;95573.00;;;21.90
10869;BMP180;62667;48.698;8.762;2023-07-29T10:14:48;95576.00;;;21.90
10869;BMP180;62667;48.698;8.762;2023-07-29T10:17:16;95574.00;;;21.90
10869;BMP180;62667;48.698;8.762;2023-07-29T10:19:46;95575.00;;;22.00
10869;BMP180;62667;48.698;8.762;2023-07-29T10:22:19;95559.00;;;22.10
10869;BMP180;62667;48.698;8.762;2023-07-29T10:24:49;95569.00;;;22.00
10869;BMP180;62667;48.698;8.762;2023-07-29T10:27:18;95579.00;;;22.00
10869;BMP180;62667;48.698;8.762;2023-07-29T10:29:46;95577.00;;;22.10
10869;BMP180;62667;48.698;8.762;2023-07-29T10:32:14;95565.00;;;22.20
10869;BMP180;62667;48.698;8.762;2023-07-29T10:34:42;95569.00;;;22.20
10869;BMP180;62667;48.698;8.762;2023-07-29T10:37:11;95568.00;;;22.20
10869;BMP180;62667;48.698;8.762;2023-07-29T10:39:39;95554.00;;;22.20
10869;BMP180;62667;48.698;8.762;2023-07-29T10:42:08;95553.00;;;22.60
10869;BMP180;62667;48.698;8.762;2023-07-29T10:44:49;95560.00;;;22.40
10869;BMP180;62667;48.698;8.762;2023-07-29T10:47:19;95565.00;;;22.60
10869;BMP180;62667;48.698;8.762;2023-07-29T10:49:48;95563.00;;;23.20
10869;BMP180;62667;48.698;8.762;2023-07-29T10:52:27;95568.00;;;23.40
10869;BMP180;62667;48.698;8.762;2023-07-29T10:54:56;95569.00;;;23.40
10869;BMP180;62667;48.698;8.762;2023-07-29T10:57:33;95551.00;;;23.70
10869;BMP180;62667;48.698;8.762;2023-07-29T11:00:02;95558.00;;;24.00
10869;BMP180;62667;48.698;8.762;2023-07-29T11:02:32;95566.00;;;23.50
10869;BMP180;62667;48.698;8.762;2023-07-29T11:05:04;95548.00;;;24.00
10869;BMP180;62667;48.698;8.762;2023-07-29T11:07:32;95547.00;;;24.20
10869;BMP180;62667;48.698;8.762;2023-07-29T11:10:11;95553.00;;;24.40
10869;BMP180;62667;48.698;8.762;2023-07-29T11:12:44;95564.00;;;24.40
10869;BMP180;62667;48.698;8.762;2023-07-29T11:15:18;95546.00;;;24.20
10869;BMP180;62667;48.698;8.762;2023-07-29T11:17:48;95567.00;;;24.10
10869;BMP180;62667;48.698;8.762;2023-07-29T11:20:16;95551.00;;;23.80
10869;BMP180;62667;48.698;8.762;2023-07-29T11:22:44;95554.00;;;24.00
10869;BMP180;62667;48.698;8.762;2023-07-29T11:25:13;95538.00;;;23.40
10869;BMP180;62667;48.698;8.762;2023-07-29T11:27:42;95527.00;;;23.60
10869;BMP180;62667;48.698;8.762;2023-07-29T11:30:11;95530.00;;;23.50
10869;BMP180;62667;48.698;8.762;2023-07-29T11:32:40;95543.00;;;23.50
10869;BMP180;62667;48.698;8.762;2023-07-29T11:35:09;95554.00;;;23.60
10869;BMP180;62667;48.698;8.762;2023-07-29T11:37:39;95552.00;;;23.90
10869;BMP180;62667;48.698;8.762;2023-07-29T11:40:07;95549.00;;;23.90
10869;BMP180;62667;48.698;8.762;2023-07-29T11:42:37;95537.00;;;23.90
10869;BMP180;62667;48.698;8.762;2023-07-29T11:45:07;95538.00;;;24.40
10869;BMP180;62667;48.698;8.762;2023-07-29T11:47:36;95546.00;;;24.00
10869;BMP180;62667;48.698;8.762;2023-07-29T11:50:05;95534.00;;;23.90
10869;BMP180;62667;48.698;8.762;2023-07-29T11:52:34;95537.00;;;24.40
10869;BMP180;62667;48.698;8.762;2023-07-29T11:55:02;95553.00;;;24.20
10869;BMP180;62667;48.698;8.762;2023-07-29T11:57:30;95519.00;;;24.70
10869;BMP180;62667;48.698;8.762;2023-07-29T11:59:58;95537.00;;;25.20
10869;BMP180;62667;48.698;8.762;2023-07-29T12:02:27;95532.00;;;24.90
10869;BMP180;62667;48.698;8.762;2023-07-29T12:04:54;95541.00;;;24.80
10869;BMP180;62667;48.698;8.762;2023-07-29T12:07:24;95545.00;;;24.70
10869;BMP180;62667;48.698;8.762;2023-07-29T12:09:52;95535.00;;;24.10
10869;BMP180;62667;48.698;8.762;2023-07-29T12:12:22;95533.00;;;24.20
10869;BMP180;62667;48.698;8.762;2023-07-29T12:14:50;95538.00;;;24.20
10869;BMP180;62667;48.698;8.762;2023-07-29T12:17:19;95525.00;;;24.30
10869;BMP180;62667;48.698;8.762;2023-07-29T12:19:47;95554.00;;;24.70
10869;BMP180;62667;48.698;8.762;2023-07-29T12:22:19;95539.00;;;24.10
10869;BMP180;62667;48.698;8.762;2023-07-29T12:24:47;95549.00;;;23.80
10869;BMP180;62667;48.698;8.762;2023-07-29T12:27:14;95537.00;;;23.80
10869;BMP180;62667;48.698;8.762;2023-07-29T12:29:43;95531.00;;;24.30
10869;BMP180;62667;48.698;8.762;2023-07-29T12:32:12;95531.00;;;24.40
10869;BMP180;62667;48.698;8.762;2023-07-29T12:34:40;95534.00;;;24.90
10869;BMP180;62667;48.698;8.762;2023-07-29T12:37:09;95533.00;;;25.30
10869;BMP180;62667;48.698;8.762;2023-07-29T12:39:40;95562.00;;;24.40
10869;BMP180;62667;48.698;8.762;2023-07-29T12:42:08;95542.00;;;24.50
10869;BMP180;62667;48.698;8.762;2023-07-29T12:44:36;95576.00;;;24.60
10869;BMP180;62667;48.698;8.762;2023-07-29T12:47:06;95554.00;;;23.80
10869;BMP180;62667;48.698;8.762;2023-07-29T12:49:35;95560.00;;;24.20
10869;BMP180;62667;48.698;8.762;2023-07-29T12:52:02;95536.00;;;23.90
10869;BMP180;62667;48.698;8.762;2023-07-29T12:54:31;95533.00;;;24.10
10869;BMP180;62667;48.698;8.762;2023-07-29T12:56:58;95522.00;;;25.10
10869;BMP180;62667;48.698;8.762;2023-07-29T12:59:26;95516.00;;;25.50
10869;BMP180;62667;48.698;8.762;2023-07-29T13:01:53;95531.00;;;25.20
10869;BMP180;62667;48.698;8.762;2023-07-29T13:04:21;95545.00;;;25.30
10869;BMP180;62667;48.698;8.762;2023-07-29T13:06:48;95532.00;;;24.20
10869;BMP180;62667;48.698;8.762;2023-07-29T13:09:15;95545.00;;;24.20
10869;BMP180;62667;48.698;8.762;2023-07-29T13:11:44;95540.00;;;24.50
10869;BMP180;62667;48.698;8.762;2023-07-29T13:14:12;95545.00;;;24.10
10869;BMP180;62667;48.698;8.762;2023-07-29T13:16:39;95546.00;;;24.20
10869;BMP180;62667;48.698;8.762;2023-07-29T13:19:06;95545.00;;;24.40
10869;BMP180;62667;48.698;8.762;2023-07-29T13:21:34;95566.00;;;23.80
10869;BMP180;62667;48.698;8.762;2023-07-29T13:24:01;95550.00;;;23.60
10869;BMP180;62667;48.698;8.762;2023-07-29T13:26:29;95546.00;;;23.60
10869;BMP180;62667;48.698;8.762;2023-07-29T13:28:57;95542.00;;;23.90
10869;BMP180;62667;48.698;8.762;2023-07-29T13:31:25;95546.00;;;24.30
10869;BMP180;62667;48.698;8.762;2023-07-29T13:33:52;95543.00;;;24.70
10869;BMP180;62667;48.698;8.762;2023-07-29T13:36:20;95538.00;;;25.10
10869;BMP180;62667;48.698;8.762;2023-07-29T13:38:47;95534.00;;;24.90
10869;BMP180;62667;48.698;8.762;2023-07-29T13:41:16;95530.00;;;25.40
10869;BMP180;62667;48.698;8.762;2023-07-29T13:43:43;95523.00;;;25.10
10869;BMP180;62667;48.698;8.762;2023-07-29T13:46:12;95535.00;;;25.20
10869;BMP180;62667;48.698;8.762;2023-07-29T13:48:39;95539.00;;;25.80
10869;BMP180;62667;48.698;8.762;2023-07-29T13:51:07;95540.00;;;25.30
10869;BMP180;62667;48.698;8.762;2023-07-29T13:53:34;95545.00;;;25.20
10869;BMP180;62667;48.698;8.762;2023-07-29T13:56:02;95547.00;;;25.10
10869;BMP180;62667;48.698;8.762;2023-07-29T13:58:29;95556.00;;;25.30
10869;BMP180;62667;48.698;8.762;2023-07-29T14:00:57;95553.00;;;25.20
10869;BMP180;62667;48.698;8.762;2023-07-29T14:03:25;95558.00;;;24.70
10869;BMP180;62667;48.698;8.762;2023-07-29T14:05:53;95572.00;;;24.70
10869;BMP180;62667;48.698;8.762;2023-07-29T14:08:20;95558.00;;;24.90
10869;BMP180;62667;48.698;8.762;2023-07-29T14:10:49;95559.00;;;25.00
10869;BMP180;62667;48.698;8.762;2023-07-29T14:13:17;95561.00;;;24.80
10869;BMP180;62667;48.698;8.762;2023-07-29T14:15:44;95545.00;;;24.50
10869;BMP180;62667;48.698;8.762;2023-07-29T14:18:11;95566.00;;;23.90